Lorraine L — WDB8580 — position and weather

sailwx.info

Track history (hours):
 
Tides and Currents Weather Stations Pressure Air Temp Water Temp Dewpoint Dewpoint Depression Visibility Wind Speed Wind Dir Waves Ship Positions

Lorraine L

Owner: Highland Towing LLC, Metairie, LA. More information available from US FCC via Universal Licensing System and Coast Guard Vessel Documentation Center.

Last reported at 2018-Feb-24 06:31 UTC. Time now 2018-Feb-24 06:35 UTC.
Position N 30°06' W 093°18'.

Length 19 m; draft 2.4 m.

Type: Towing. MMSI: 366961130.

Date/timePositionNaut miles runAvg speedWind from/ knotsBaromVisibWave heightAir tempDewpointWater temp
2018-Feb-24 06:31N 30°06' W 093°18'0 0.0
2018-Feb-24 05:58N 30°06' W 093°18'0 0.0
2018-Feb-24 05:28N 30°06' W 093°18'0 0.0
2018-Feb-24 05:01N 30°06' W 093°18'0 0.0
2018-Feb-24 04:31N 30°06' W 093°18'0 0.0
2018-Feb-24 04:00N 30°06' W 093°18'0 0.0
2018-Feb-24 03:28N 30°06' W 093°18'0 0.0
2018-Feb-24 03:01N 30°06' W 093°18'0 0.0
2018-Feb-24 02:30N 30°06' W 093°18'0 0.0
2018-Feb-24 01:57N 30°06' W 093°18'0 0.0
2018-Feb-24 01:30N 30°06' W 093°18'0 0.0
2018-Feb-24 01:01N 30°06' W 093°18'0 0.0
2018-Feb-24 00:31N 30°06' W 093°18'5 1.1
2018-Feb-23 19:54N 30°04' W 093°23'2 4.9
2018-Feb-23 19:30N 30°04' W 093°25'3 5.3
2018-Feb-23 19:00N 30°04' W 093°28'3 5.5
2018-Feb-23 18:30N 30°04' W 093°31'3 5.5
2018-Feb-23 18:00N 30°04' W 093°34'3 5.8
2018-Feb-23 17:30N 30°04' W 093°38'3 5.7
2018-Feb-23 17:00N 30°04' W 093°41'3 5.2
2018-Feb-23 16:30N 30°03' W 093°44'3 5.2
2018-Feb-23 16:00N 30°01' W 093°46'3 5.6
2018-Feb-23 15:30N 29°59' W 093°48'3 5.9
2018-Feb-23 15:00N 29°58' W 093°51'3 5.5
2018-Feb-23 14:30N 29°55' W 093°53'3 5.1
2018-Feb-23 14:00N 29°53' W 093°55'2 4.8
2018-Feb-23 13:30N 29°51' W 093°57'2 3.6
2018-Feb-23 13:00N 29°50' W 093°58'0 0.1
2018-Feb-23 12:22N 29°50' W 093°58'0 0.0
2018-Feb-23 11:58N 29°50' W 093°58'0 0.0
2018-Feb-23 11:28N 29°50' W 093°58'0 0.0
2018-Feb-23 10:58N 29°50' W 093°58'0 0.0
2018-Feb-23 10:28N 29°50' W 093°58'0 0.0
2018-Feb-23 09:58N 29°50' W 093°58'0 0.0
2018-Feb-23 09:28N 29°50' W 093°58'0 0.0
2018-Feb-23 08:58N 29°50' W 093°58'0 0.0
2018-Feb-23 08:28N 29°50' W 093°58'0 0.0
2018-Feb-23 07:58N 29°50' W 093°58'0 0.0
2018-Feb-23 07:28N 29°50' W 093°58'0 0.0
2018-Feb-23 06:58N 29°50' W 093°58'0 0.0
2018-Feb-23 06:28N 29°50' W 093°58'0 0.0
2018-Feb-23 05:58N 29°50' W 093°58'0 0.0
2018-Feb-23 05:28N 29°50' W 093°58'0 0.0
2018-Feb-23 04:58N 29°50' W 093°58'0 0.0
2018-Feb-23 04:28N 29°50' W 093°58'0 0.0
2018-Feb-23 03:58N 29°50' W 093°58'0 0.0
2018-Feb-23 03:28N 29°50' W 093°58'0 0.0
2018-Feb-23 02:58N 29°50' W 093°58'0 0.0
2018-Feb-23 02:28N 29°50' W 093°58'0 0.0
2018-Feb-23 01:58N 29°50' W 093°58'0 0.0
2018-Feb-23 01:28N 29°50' W 093°58'0 0.0
2018-Feb-23 00:58N 29°50' W 093°58'0 0.0
2018-Feb-23 00:28N 29°50' W 093°58'0 0.0
2018-Feb-22 23:58N 29°50' W 093°58'1 1.1
2018-Feb-22 23:30N 29°49' W 093°58'1 1.2
2018-Feb-22 23:00N 29°49' W 093°59'0 0.0
2018-Feb-22 22:30N 29°49' W 093°59'0 0.1
2018-Feb-22 22:00N 29°49' W 093°59'0 0.7
2018-Feb-22 21:28N 29°49' W 093°58'0 0.0
2018-Feb-22 20:58N 29°49' W 093°58'0 0.0
2018-Feb-22 20:28N 29°49' W 093°58'0 0.0
2018-Feb-22 19:58N 29°49' W 093°58'0 0.0
2018-Feb-22 19:28N 29°49' W 093°58'0 0.0
2018-Feb-22 18:58N 29°49' W 093°58'0 0.1
2018-Feb-22 18:28N 29°49' W 093°58'0 0.3
2018-Feb-22 18:00N 29°49' W 093°58'3 5.2
2018-Feb-22 17:30N 29°51' W 093°56'3 5.4
2018-Feb-22 17:00N 29°54' W 093°55'3 5.3
2018-Feb-22 16:30N 29°56' W 093°53'3 5.3
2018-Feb-22 16:00N 29°58' W 093°51'1 1.6
2018-Feb-22 15:30N 29°58' W 093°51'3 5.6
2018-Feb-22 15:01N 29°59' W 093°48'3 5.4
2018-Feb-22 14:31N 30°01' W 093°45'3 5.4
2018-Feb-22 14:00N 30°03' W 093°43'3 5.7
2018-Feb-22 13:30N 30°04' W 093°40'3 5.9
2018-Feb-22 13:00N 30°04' W 093°37'3 5.3
2018-Feb-22 12:30N 30°04' W 093°33'18 1.0
2018-Feb-21 18:59N 30°13' W 093°16'0 0.0
2018-Feb-21 13:30N 30°13' W 093°16'1 1.0
2018-Feb-21 12:59N 30°13' W 093°16'0 0.1
2018-Feb-21 12:29N 30°13' W 093°16'0 0.0
2018-Feb-21 11:56N 30°13' W 093°16'0 0.0
2018-Feb-21 11:29N 30°13' W 093°16'0 0.0
2018-Feb-21 10:59N 30°13' W 093°16'0 0.0
2018-Feb-21 10:29N 30°13' W 093°16'0 0.0
2018-Feb-21 09:56N 30°13' W 093°16'0 0.0
2018-Feb-21 09:29N 30°13' W 093°16'0 0.0
2018-Feb-21 08:59N 30°13' W 093°16'0 0.0
2018-Feb-21 08:29N 30°13' W 093°16'0 0.0
2018-Feb-21 07:56N 30°13' W 093°16'0 0.0
2018-Feb-21 07:29N 30°13' W 093°16'0 0.0
2018-Feb-21 06:59N 30°13' W 093°16'0 0.1
2018-Feb-21 06:29N 30°13' W 093°16'1 1.3
2018-Feb-21 06:01N 30°13' W 093°16'1 2.4
2018-Feb-21 05:30N 30°12' W 093°17'2 4.5
2018-Feb-21 05:00N 30°11' W 093°19'2 4.9
2018-Feb-21 04:30N 30°09' W 093°20'2 4.9
2018-Feb-21 04:00N 30°06' W 093°20'2 3.5
2018-Feb-21 03:30N 30°05' W 093°20'2 3.4
2018-Feb-21 03:00N 30°04' W 093°22'2 3.7
2018-Feb-21 02:30N 30°04' W 093°24'2 4.4
2018-Feb-21 02:00N 30°04' W 093°27'2 4.7
2018-Feb-21 01:30N 30°04' W 093°29'2 4.7
2018-Feb-21 01:00N 30°04' W 093°32'3 4.8
2018-Feb-21 00:28N 30°04' W 093°35'2 4.9
2018-Feb-20 23:59N 30°04' W 093°38'3 5.0
2018-Feb-20 23:29N 30°04' W 093°41'2 4.9
2018-Feb-20 22:59N 30°03' W 093°43'2 4.3
2018-Feb-20 22:30N 30°01' W 093°45'2 4.7
2018-Feb-20 22:00N 29°60' W 093°47'2 4.9
2018-Feb-20 21:30N 29°59' W 093°49'2 4.2
2018-Feb-20 21:00N 29°59' W 093°52'3 5.7
2018-Feb-20 20:30N 29°59' W 093°55'3 5.1
2018-Feb-20 20:00N 30°01' W 093°57'3 5.1
2018-Feb-20 19:30N 30°01' W 094°00'2 4.5
2018-Feb-20 19:00N 30°02' W 094°02'0 0.9
2018-Feb-20 18:30N 30°02' W 094°03'0 0.1
2018-Feb-20 18:00N 30°02' W 094°03'0 0.0
2018-Feb-20 17:30N 30°02' W 094°03'0 0.0
2018-Feb-20 17:00N 30°02' W 094°03'0 0.0
2018-Feb-20 16:30N 30°02' W 094°03'0 0.0
2018-Feb-20 16:00N 30°02' W 094°03'1 1.4
2018-Feb-20 15:30N 30°02' W 094°02'2 5.0
2018-Feb-20 15:01N 30°01' W 093°60'2 4.5
2018-Feb-20 14:30N 30°00' W 093°57'3 5.7
2018-Feb-20 14:00N 29°59' W 093°54'3 5.4
2018-Feb-20 13:30N 29°58' W 093°51'2 4.2
2018-Feb-20 12:59N 29°56' W 093°52'0 0.0
2018-Feb-20 12:29N 29°56' W 093°52'0 0.0
2018-Feb-20 11:59N 29°56' W 093°52'0 0.3
2018-Feb-20 11:25N 29°56' W 093°52'2 4.6
2018-Feb-20 11:00N 29°54' W 093°54'2 4.3
2018-Feb-20 10:29N 29°53' W 093°55'0 0.0
2018-Feb-20 09:59N 29°53' W 093°55'0 0.0
2018-Feb-20 09:29N 29°53' W 093°55'0 0.1
2018-Feb-20 08:59N 29°53' W 093°55'1 2.3
2018-Feb-20 08:30N 29°52' W 093°56'2 4.5
2018-Feb-20 08:00N 29°50' W 093°57'0 0.8
2018-Feb-20 07:30N 29°50' W 093°58'0 0.0
2018-Feb-20 07:00N 29°50' W 093°58'0 0.1
2018-Feb-20 06:30N 29°50' W 093°58'0 0.0
2018-Feb-20 06:00N 29°50' W 093°58'0 0.0
2018-Feb-20 05:30N 29°50' W 093°58'0 0.0
2018-Feb-20 05:00N 29°50' W 093°58'0 0.0
2018-Feb-20 04:30N 29°50' W 093°58'0 0.0
2018-Feb-20 02:58N 29°50' W 093°58'0 0.0
2018-Feb-20 02:28N 29°50' W 093°58'0 0.0
2018-Feb-20 01:58N 29°50' W 093°58'0 0.0
2018-Feb-20 01:28N 29°50' W 093°58'0 0.0
2018-Feb-20 00:58N 29°50' W 093°58'0 0.0
2018-Feb-20 00:28N 29°50' W 093°58'0 0.0
2018-Feb-19 23:58N 29°50' W 093°58'0 0.0
2018-Feb-19 23:28N 29°50' W 093°58'0 0.0
2018-Feb-19 22:58N 29°50' W 093°58'0 0.0
2018-Feb-19 22:28N 29°50' W 093°58'0 0.0
2018-Feb-19 21:58N 29°50' W 093°58'0 0.0
2018-Feb-19 21:25N 29°50' W 093°58'0 0.0
2018-Feb-19 20:58N 29°50' W 093°58'0 0.0
2018-Feb-19 20:28N 29°50' W 093°58'0 0.0
2018-Feb-19 19:58N 29°50' W 093°58'0 0.0
2018-Feb-19 19:28N 29°50' W 093°58'0 0.0
2018-Feb-19 18:58N 29°50' W 093°58'0 0.0
2018-Feb-19 18:28N 29°50' W 093°58'0 0.0
2018-Feb-19 17:58N 29°50' W 093°58'0 0.0
2018-Feb-19 17:28N 29°50' W 093°58'0 0.0
2018-Feb-19 16:58N 29°50' W 093°58'0 0.0
2018-Feb-19 16:28N 29°50' W 093°58'0 0.0
2018-Feb-19 15:58N 29°50' W 093°58'0 0.0
2018-Feb-19 15:28N 29°50' W 093°58'0 0.0
2018-Feb-19 14:55N 29°50' W 093°58'0 0.0
2018-Feb-19 14:28N 29°50' W 093°58'0 0.0
2018-Feb-19 13:58N 29°50' W 093°58'1 2.9
2018-Feb-19 13:30N 29°51' W 093°57'3 5.3
2018-Feb-19 13:00N 29°53' W 093°55'3 5.3
2018-Feb-19 12:31N 29°55' W 093°53'3 5.3
2018-Feb-19 12:01N 29°57' W 093°52'2 3.8
2018-Feb-19 11:30N 29°59' W 093°53'2 3.6
2018-Feb-19 10:58N 29°60' W 093°55'0 0.1
2018-Feb-19 10:29N 29°60' W 093°55'0 0.0
2018-Feb-19 09:56N 29°60' W 093°55'0 0.0
2018-Feb-19 09:29N 29°60' W 093°55'0 0.0
2018-Feb-19 08:59N 29°60' W 093°55'0 0.0
2018-Feb-19 08:23N 29°60' W 093°55'0 0.0
2018-Feb-19 07:59N 29°60' W 093°55'0 0.0
2018-Feb-19 07:29N 29°60' W 093°55'0 0.0
2018-Feb-19 06:59N 29°60' W 093°55'0 0.0
2018-Feb-19 06:29N 29°60' W 093°55'0 0.0
2018-Feb-19 05:59N 29°60' W 093°55'0 0.0
2018-Feb-19 05:26N 29°60' W 093°55'0 0.0
2018-Feb-19 04:59N 29°60' W 093°55'0 0.0
2018-Feb-19 04:29N 29°60' W 093°55'0 0.0
2018-Feb-19 03:59N 29°60' W 093°55'0 0.0
2018-Feb-19 03:29N 29°60' W 093°55'0 0.0
2018-Feb-19 02:59N 29°60' W 093°55'0 0.0
2018-Feb-19 02:29N 29°60' W 093°55'0 0.0
2018-Feb-19 01:59N 29°60' W 093°55'0 0.0
2018-Feb-19 01:29N 29°60' W 093°55'0 0.0
2018-Feb-19 00:59N 29°60' W 093°55'1 1.1
2018-Feb-19 00:30N 29°59' W 093°55'2 3.5
2018-Feb-19 00:00N 29°60' W 093°57'2 4.1
2018-Feb-18 23:30N 30°01' W 093°59'3 5.2
2018-Feb-18 23:00N 30°01' W 094°02'1 2.8
2018-Feb-18 22:30N 30°02' W 094°03'0 0.1
2018-Feb-18 22:00N 30°02' W 094°03'0 0.0
2018-Feb-18 21:27N 30°02' W 094°03'0 0.0
2018-Feb-18 21:00N 30°02' W 094°03'0 1.0
2018-Feb-18 20:30N 30°02' W 094°02'2 4.0
2018-Feb-18 20:00N 30°01' W 094°00'2 4.2
2018-Feb-18 19:30N 30°01' W 093°58'2 3.9
2018-Feb-18 19:01N 29°60' W 093°56'2 4.0
2018-Feb-18 18:30N 29°59' W 093°54'2 3.8
2018-Feb-18 18:00N 29°59' W 093°52'2 3.5
2018-Feb-18 17:30N 29°59' W 093°50'3 5.1
2018-Feb-18 17:01N 29°60' W 093°47'3 5.2
2018-Feb-18 16:30N 30°01' W 093°45'2 4.7
2018-Feb-18 16:00N 30°03' W 093°43'2 4.1
2018-Feb-18 15:30N 30°04' W 093°41'2 3.8
2018-Feb-18 15:00N 30°04' W 093°39'2 3.9
2018-Feb-18 14:30N 30°04' W 093°36'2 3.7
2018-Feb-18 14:00N 30°04' W 093°34'2 3.5
2018-Feb-18 13:30N 30°04' W 093°32'2 3.9
2018-Feb-18 13:00N 30°04' W 093°30'2 4.3
2018-Feb-18 12:31N 30°04' W 093°28'2 4.3
2018-Feb-18 11:59N 30°04' W 093°25'2 4.3
2018-Feb-18 11:30N 30°04' W 093°23'2 3.2
2018-Feb-18 11:00N 30°04' W 093°21'2 3.3
2018-Feb-18 10:30N 30°05' W 093°20'2 4.7
2018-Feb-18 10:01N 30°08' W 093°20'2 4.1
2018-Feb-18 09:30N 30°10' W 093°19'1 0.1
2018-Feb-17 22:45N 30°10' W 093°19'0 0.0
2018-Feb-17 22:30N 30°10' W 093°19'0 0.0
2018-Feb-17 22:00N 30°10' W 093°19'0 0.0
2018-Feb-17 21:30N 30°10' W 093°19'0 0.1
2018-Feb-17 21:00N 30°10' W 093°19'0 0.3
2018-Feb-17 20:30N 30°10' W 093°19'2 4.5
2018-Feb-17 20:00N 30°08' W 093°20'2 4.9
2018-Feb-17 19:30N 30°06' W 093°19'1 2.2
2018-Feb-17 18:57N 30°06' W 093°18'0 0.0
2018-Feb-17 18:30N 30°06' W 093°18'0 0.0
2018-Feb-17 18:00N 30°06' W 093°18'0 0.0
2018-Feb-17 13:45N 30°06' W 093°18'0 0.0
2018-Feb-17 13:30N 30°06' W 093°18'0 0.0
2018-Feb-17 13:00N 30°06' W 093°18'0 0.0
2018-Feb-17 12:30N 30°06' W 093°18'0 0.0
2018-Feb-17 12:00N 30°06' W 093°18'0 0.0
2018-Feb-17 11:30N 30°06' W 093°18'0 0.0
2018-Feb-17 11:00N 30°06' W 093°18'0 0.0
2018-Feb-17 10:30N 30°06' W 093°18'0 0.0
2018-Feb-17 10:00N 30°06' W 093°18'0 0.0
2018-Feb-17 09:30N 30°06' W 093°18'0 0.0
2018-Feb-17 09:00N 30°06' W 093°18'0 0.0
2018-Feb-17 08:30N 30°06' W 093°18'0 0.0
2018-Feb-17 08:00N 30°06' W 093°18'0 0.0
2018-Feb-17 07:30N 30°06' W 093°18'0 0.0
2018-Feb-17 07:00N 30°06' W 093°18'0 0.0
2018-Feb-17 06:30N 30°06' W 093°18'0 0.0
2018-Feb-17 06:00N 30°06' W 093°18'0 0.0
2018-Feb-17 05:30N 30°06' W 093°18'0 0.0
2018-Feb-17 05:00N 30°06' W 093°18'0 0.0
2018-Feb-17 04:30N 30°06' W 093°18'0 0.0
2018-Feb-17 04:00N 30°06' W 093°18'0 0.0
2018-Feb-17 03:30N 30°06' W 093°18'0 0.0
2018-Feb-17 03:00N 30°06' W 093°18'0 0.0
2018-Feb-17 02:30N 30°06' W 093°18'0 0.0
2018-Feb-17 02:00N 30°06' W 093°18'0 0.0
2018-Feb-17 01:27N 30°06' W 093°18'0 0.0
2018-Feb-17 00:54N 30°06' W 093°18'0 0.0
2018-Feb-17 00:30N 30°06' W 093°18'0 0.0
2018-Feb-16 23:57N 30°06' W 093°18'0 0.0
2018-Feb-16 23:15N 30°06' W 093°18'0 0.0
2018-Feb-16 23:01N 30°06' W 093°18'0 0.2
2018-Feb-16 22:26N 30°06' W 093°18'0 0.0
2018-Feb-16 21:58N 30°06' W 093°18'0 0.0
2018-Feb-16 21:28N 30°06' W 093°18'0 0.0
2018-Feb-16 20:58N 30°06' W 093°18'0 0.2
2018-Feb-16 20:30N 30°06' W 093°18'0 0.1
2018-Feb-16 19:59N 30°06' W 093°18'0 0.0
2018-Feb-16 19:29N 30°06' W 093°18'0 0.0
2018-Feb-16 18:59N 30°06' W 093°18'0 0.0
2018-Feb-16 18:29N 30°06' W 093°18'0 0.0
2018-Feb-16 17:59N 30°06' W 093°18'0 0.0
2018-Feb-16 17:29N 30°06' W 093°18'0 0.0
2018-Feb-16 16:59N 30°06' W 093°18'0 0.0
2018-Feb-16 16:23N 30°06' W 093°18'0 0.0
2018-Feb-16 15:59N 30°06' W 093°18'0 0.0
2018-Feb-16 15:29N 30°06' W 093°18'0 0.0
2018-Feb-16 14:59N 30°06' W 093°18'0 0.0
2018-Feb-16 14:29N 30°06' W 093°18'0 0.0
2018-Feb-16 13:59N 30°06' W 093°18'0 0.9
2018-Feb-16 13:30N 30°06' W 093°19'0 0.0
2018-Feb-15 21:44N 30°06' W 093°18'0 0.0
2018-Feb-15 21:29N 30°06' W 093°18'0 0.0
2018-Feb-15 20:59N 30°06' W 093°18'0 0.0
2018-Feb-15 20:29N 30°06' W 093°18'0 0.0
2018-Feb-15 19:59N 30°06' W 093°18'0 0.0
2018-Feb-15 19:29N 30°06' W 093°18'0 0.0
2018-Feb-15 18:59N 30°06' W 093°18'0 0.0
2018-Feb-15 18:29N 30°06' W 093°18'0 0.0
2018-Feb-15 17:59N 30°06' W 093°18'0 0.0
2018-Feb-15 17:29N 30°06' W 093°18'0 0.0
2018-Feb-15 16:59N 30°06' W 093°18'0 0.0
2018-Feb-15 16:29N 30°06' W 093°18'0 0.0
2018-Feb-15 08:47N 30°06' W 093°18'0 0.0
2018-Feb-15 08:29N 30°06' W 093°18'0 0.0
2018-Feb-15 07:59N 30°06' W 093°18'0 0.0
2018-Feb-15 07:29N 30°06' W 093°18'0 0.0
2018-Feb-15 06:59N 30°06' W 093°18'0 0.0
2018-Feb-15 06:23N 30°06' W 093°18'0 0.0
2018-Feb-15 05:59N 30°06' W 093°18'0 0.0
2018-Feb-15 05:29N 30°06' W 093°18'0 0.0
2018-Feb-15 04:56N 30°06' W 093°18'0 0.0
2018-Feb-15 04:29N 30°06' W 093°18'0 0.0
2018-Feb-15 03:59N 30°06' W 093°18'0 0.0
2018-Feb-15 03:29N 30°06' W 093°18'0 0.0
2018-Feb-15 02:50N 30°06' W 093°18'0 0.0
2018-Feb-15 02:17N 30°06' W 093°18'0 0.0
2018-Feb-15 01:59N 30°06' W 093°18'0 0.0
2018-Feb-15 01:29N 30°06' W 093°18'0 0.0
2018-Feb-15 00:59N 30°06' W 093°18'0 0.0
2018-Feb-15 00:29N 30°06' W 093°18'0 0.0
2018-Feb-14 23:59N 30°06' W 093°18'0 0.0
2018-Feb-14 23:29N 30°06' W 093°18'0 0.0
2018-Feb-14 22:59N 30°06' W 093°18'0 0.0
2018-Feb-14 22:29N 30°06' W 093°18'0 0.0
2018-Feb-14 21:59N 30°06' W 093°18'0 0.0
2018-Feb-14 21:28N 30°06' W 093°18'0 0.0
2018-Feb-14 20:58N 30°06' W 093°18'0 0.0
2018-Feb-14 20:28N 30°06' W 093°18'0 0.0
2018-Feb-14 19:58N 30°06' W 093°18'0 0.0
2018-Feb-14 19:28N 30°06' W 093°18'0 0.0
2018-Feb-14 18:58N 30°06' W 093°18'0 0.0
2018-Feb-14 18:28N 30°06' W 093°18'0 0.0
2018-Feb-14 17:58N 30°06' W 093°18'0 0.0
2018-Feb-14 17:28N 30°06' W 093°18'0 0.0
2018-Feb-14 16:58N 30°06' W 093°18'0 0.0
2018-Feb-14 16:30N 30°06' W 093°18'0 0.3
2018-Feb-14 16:00N 30°06' W 093°18'0 0.2
2018-Feb-14 15:30N 30°06' W 093°18'0 0.0
2018-Feb-14 15:00N 30°06' W 093°18'0 0.0
2018-Feb-14 14:30N 30°06' W 093°18'0 0.0
2018-Feb-14 14:00N 30°06' W 093°18'0 0.0
2018-Feb-14 13:30N 30°06' W 093°18'0 0.0
2018-Feb-14 13:00N 30°06' W 093°18'0 0.0
2018-Feb-14 12:30N 30°06' W 093°18'0 0.0
2018-Feb-14 12:00N 30°06' W 093°18'0 0.0
2018-Feb-14 11:30N 30°06' W 093°18'0 0.0
2018-Feb-14 11:00N 30°06' W 093°18'0 0.0
2018-Feb-14 10:30N 30°06' W 093°18'0 0.0
2018-Feb-14 10:00N 30°06' W 093°18'0 0.0
2018-Feb-14 09:30N 30°06' W 093°18'0 0.0
2018-Feb-14 09:00N 30°06' W 093°18'0 0.0
2018-Feb-14 08:30N 30°06' W 093°18'0 0.0
2018-Feb-14 08:00N 30°06' W 093°18'0 0.0
2018-Feb-14 07:30N 30°06' W 093°18'0 0.0
2018-Feb-14 07:00N 30°06' W 093°18'  
Track history (hours):
 
Tides and Currents Weather Stations Pressure Air Temp Water Temp Dewpoint Dewpoint Depression Visibility Wind Speed Wind Dir Waves Ship Positions

Lorraine L

Owner: Highland Towing LLC, Metairie, LA. More information available from US FCC via Universal Licensing System and Coast Guard Vessel Documentation Center.

Last reported at 2018-Feb-24 06:31 UTC. Time now 2018-Feb-24 06:35 UTC.
Position N 30°06' W 093°18'.

Length 19 m; draft 2.4 m.

Type: Towing. MMSI: 366961130.

Date/timePositionNaut miles runAvg speedWind from/ knotsBaromVisibWave heightAir tempDewpointWater temp
2018-Feb-24 06:31N 30°06' W 093°18'0 0.0
2018-Feb-24 05:58N 30°06' W 093°18'0 0.0
2018-Feb-24 05:28N 30°06' W 093°18'0 0.0
2018-Feb-24 05:01N 30°06' W 093°18'0 0.0
2018-Feb-24 04:31N 30°06' W 093°18'0 0.0
2018-Feb-24 04:00N 30°06' W 093°18'0 0.0
2018-Feb-24 03:28N 30°06' W 093°18'0 0.0
2018-Feb-24 03:01N 30°06' W 093°18'0 0.0
2018-Feb-24 02:30N 30°06' W 093°18'0 0.0
2018-Feb-24 01:57N 30°06' W 093°18'0 0.0
2018-Feb-24 01:30N 30°06' W 093°18'0 0.0
2018-Feb-24 01:01N 30°06' W 093°18'0 0.0
2018-Feb-24 00:31N 30°06' W 093°18'5 1.1
2018-Feb-23 19:54N 30°04' W 093°23'2 4.9
2018-Feb-23 19:30N 30°04' W 093°25'3 5.3
2018-Feb-23 19:00N 30°04' W 093°28'3 5.5
2018-Feb-23 18:30N 30°04' W 093°31'3 5.5
2018-Feb-23 18:00N 30°04' W 093°34'3 5.8
2018-Feb-23 17:30N 30°04' W 093°38'3 5.7
2018-Feb-23 17:00N 30°04' W 093°41'3 5.2
2018-Feb-23 16:30N 30°03' W 093°44'3 5.2
2018-Feb-23 16:00N 30°01' W 093°46'3 5.6
2018-Feb-23 15:30N 29°59' W 093°48'3 5.9
2018-Feb-23 15:00N 29°58' W 093°51'3 5.5
2018-Feb-23 14:30N 29°55' W 093°53'3 5.1
2018-Feb-23 14:00N 29°53' W 093°55'2 4.8
2018-Feb-23 13:30N 29°51' W 093°57'2 3.6
2018-Feb-23 13:00N 29°50' W 093°58'0 0.1
2018-Feb-23 12:22N 29°50' W 093°58'0 0.0
2018-Feb-23 11:58N 29°50' W 093°58'0 0.0
2018-Feb-23 11:28N 29°50' W 093°58'0 0.0
2018-Feb-23 10:58N 29°50' W 093°58'0 0.0
2018-Feb-23 10:28N 29°50' W 093°58'0 0.0
2018-Feb-23 09:58N 29°50' W 093°58'0 0.0
2018-Feb-23 09:28N 29°50' W 093°58'0 0.0
2018-Feb-23 08:58N 29°50' W 093°58'0 0.0
2018-Feb-23 08:28N 29°50' W 093°58'0 0.0
2018-Feb-23 07:58N 29°50' W 093°58'0 0.0
2018-Feb-23 07:28N 29°50' W 093°58'0 0.0
2018-Feb-23 06:58N 29°50' W 093°58'0 0.0
2018-Feb-23 06:28N 29°50' W 093°58'0 0.0
2018-Feb-23 05:58N 29°50' W 093°58'0 0.0
2018-Feb-23 05:28N 29°50' W 093°58'0 0.0
2018-Feb-23 04:58N 29°50' W 093°58'0 0.0
2018-Feb-23 04:28N 29°50' W 093°58'0 0.0
2018-Feb-23 03:58N 29°50' W 093°58'0 0.0
2018-Feb-23 03:28N 29°50' W 093°58'0 0.0
2018-Feb-23 02:58N 29°50' W 093°58'0 0.0
2018-Feb-23 02:28N 29°50' W 093°58'0 0.0
2018-Feb-23 01:58N 29°50' W 093°58'0 0.0
2018-Feb-23 01:28N 29°50' W 093°58'0 0.0
2018-Feb-23 00:58N 29°50' W 093°58'0 0.0
2018-Feb-23 00:28N 29°50' W 093°58'0 0.0
2018-Feb-22 23:58N 29°50' W 093°58'1 1.1
2018-Feb-22 23:30N 29°49' W 093°58'1 1.2
2018-Feb-22 23:00N 29°49' W 093°59'0 0.0
2018-Feb-22 22:30N 29°49' W 093°59'0 0.1
2018-Feb-22 22:00N 29°49' W 093°59'0 0.7
2018-Feb-22 21:28N 29°49' W 093°58'0 0.0
2018-Feb-22 20:58N 29°49' W 093°58'0 0.0
2018-Feb-22 20:28N 29°49' W 093°58'0 0.0
2018-Feb-22 19:58N 29°49' W 093°58'0 0.0
2018-Feb-22 19:28N 29°49' W 093°58'0 0.0
2018-Feb-22 18:58N 29°49' W 093°58'0 0.1
2018-Feb-22 18:28N 29°49' W 093°58'0 0.3
2018-Feb-22 18:00N 29°49' W 093°58'3 5.2
2018-Feb-22 17:30N 29°51' W 093°56'3 5.4
2018-Feb-22 17:00N 29°54' W 093°55'3 5.3
2018-Feb-22 16:30N 29°56' W 093°53'3 5.3
2018-Feb-22 16:00N 29°58' W 093°51'1 1.6
2018-Feb-22 15:30N 29°58' W 093°51'3 5.6
2018-Feb-22 15:01N 29°59' W 093°48'3 5.4
2018-Feb-22 14:31N 30°01' W 093°45'3 5.4
2018-Feb-22 14:00N 30°03' W 093°43'3 5.7
2018-Feb-22 13:30N 30°04' W 093°40'3 5.9
2018-Feb-22 13:00N 30°04' W 093°37'3 5.3
2018-Feb-22 12:30N 30°04' W 093°33'18 1.0
2018-Feb-21 18:59N 30°13' W 093°16'0 0.0
2018-Feb-21 13:30N 30°13' W 093°16'1 1.0
2018-Feb-21 12:59N 30°13' W 093°16'0 0.1
2018-Feb-21 12:29N 30°13' W 093°16'0 0.0
2018-Feb-21 11:56N 30°13' W 093°16'0 0.0
2018-Feb-21 11:29N 30°13' W 093°16'0 0.0
2018-Feb-21 10:59N 30°13' W 093°16'0 0.0
2018-Feb-21 10:29N 30°13' W 093°16'0 0.0
2018-Feb-21 09:56N 30°13' W 093°16'0 0.0
2018-Feb-21 09:29N 30°13' W 093°16'0 0.0
2018-Feb-21 08:59N 30°13' W 093°16'0 0.0
2018-Feb-21 08:29N 30°13' W 093°16'0 0.0
2018-Feb-21 07:56N 30°13' W 093°16'0 0.0
2018-Feb-21 07:29N 30°13' W 093°16'0 0.0
2018-Feb-21 06:59N 30°13' W 093°16'0 0.1
2018-Feb-21 06:29N 30°13' W 093°16'1 1.3
2018-Feb-21 06:01N 30°13' W 093°16'1 2.4
2018-Feb-21 05:30N 30°12' W 093°17'2 4.5
2018-Feb-21 05:00N 30°11' W 093°19'2 4.9
2018-Feb-21 04:30N 30°09' W 093°20'2 4.9
2018-Feb-21 04:00N 30°06' W 093°20'2 3.5
2018-Feb-21 03:30N 30°05' W 093°20'2 3.4
2018-Feb-21 03:00N 30°04' W 093°22'2 3.7
2018-Feb-21 02:30N 30°04' W 093°24'2 4.4
2018-Feb-21 02:00N 30°04' W 093°27'2 4.7
2018-Feb-21 01:30N 30°04' W 093°29'2 4.7
2018-Feb-21 01:00N 30°04' W 093°32'3 4.8
2018-Feb-21 00:28N 30°04' W 093°35'2 4.9
2018-Feb-20 23:59N 30°04' W 093°38'3 5.0
2018-Feb-20 23:29N 30°04' W 093°41'2 4.9
2018-Feb-20 22:59N 30°03' W 093°43'2 4.3
2018-Feb-20 22:30N 30°01' W 093°45'2 4.7
2018-Feb-20 22:00N 29°60' W 093°47'2 4.9
2018-Feb-20 21:30N 29°59' W 093°49'2 4.2
2018-Feb-20 21:00N 29°59' W 093°52'3 5.7
2018-Feb-20 20:30N 29°59' W 093°55'3 5.1
2018-Feb-20 20:00N 30°01' W 093°57'3 5.1
2018-Feb-20 19:30N 30°01' W 094°00'2 4.5
2018-Feb-20 19:00N 30°02' W 094°02'0 0.9
2018-Feb-20 18:30N 30°02' W 094°03'0 0.1
2018-Feb-20 18:00N 30°02' W 094°03'0 0.0
2018-Feb-20 17:30N 30°02' W 094°03'0 0.0
2018-Feb-20 17:00N 30°02' W 094°03'0 0.0
2018-Feb-20 16:30N 30°02' W 094°03'0 0.0
2018-Feb-20 16:00N 30°02' W 094°03'1 1.4
2018-Feb-20 15:30N 30°02' W 094°02'2 5.0
2018-Feb-20 15:01N 30°01' W 093°60'2 4.5
2018-Feb-20 14:30N 30°00' W 093°57'3 5.7
2018-Feb-20 14:00N 29°59' W 093°54'3 5.4
2018-Feb-20 13:30N 29°58' W 093°51'2 4.2
2018-Feb-20 12:59N 29°56' W 093°52'0 0.0
2018-Feb-20 12:29N 29°56' W 093°52'0 0.0
2018-Feb-20 11:59N 29°56' W 093°52'0 0.3
2018-Feb-20 11:25N 29°56' W 093°52'2 4.6
2018-Feb-20 11:00N 29°54' W 093°54'2 4.3
2018-Feb-20 10:29N 29°53' W 093°55'0 0.0
2018-Feb-20 09:59N 29°53' W 093°55'0 0.0
2018-Feb-20 09:29N 29°53' W 093°55'0 0.1
2018-Feb-20 08:59N 29°53' W 093°55'1 2.3
2018-Feb-20 08:30N 29°52' W 093°56'2 4.5
2018-Feb-20 08:00N 29°50' W 093°57'0 0.8
2018-Feb-20 07:30N 29°50' W 093°58'0 0.0
2018-Feb-20 07:00N 29°50' W 093°58'0 0.1
2018-Feb-20 06:30N 29°50' W 093°58'0 0.0
2018-Feb-20 06:00N 29°50' W 093°58'0 0.0
2018-Feb-20 05:30N 29°50' W 093°58'0 0.0
2018-Feb-20 05:00N 29°50' W 093°58'0 0.0
2018-Feb-20 04:30N 29°50' W 093°58'0 0.0
2018-Feb-20 02:58N 29°50' W 093°58'0 0.0
2018-Feb-20 02:28N 29°50' W 093°58'0 0.0
2018-Feb-20 01:58N 29°50' W 093°58'0 0.0
2018-Feb-20 01:28N 29°50' W 093°58'0 0.0
2018-Feb-20 00:58N 29°50' W 093°58'0 0.0
2018-Feb-20 00:28N 29°50' W 093°58'0 0.0
2018-Feb-19 23:58N 29°50' W 093°58'0 0.0
2018-Feb-19 23:28N 29°50' W 093°58'0 0.0
2018-Feb-19 22:58N 29°50' W 093°58'0 0.0
2018-Feb-19 22:28N 29°50' W 093°58'0 0.0
2018-Feb-19 21:58N 29°50' W 093°58'0 0.0
2018-Feb-19 21:25N 29°50' W 093°58'0 0.0
2018-Feb-19 20:58N 29°50' W 093°58'0 0.0
2018-Feb-19 20:28N 29°50' W 093°58'0 0.0
2018-Feb-19 19:58N 29°50' W 093°58'0 0.0
2018-Feb-19 19:28N 29°50' W 093°58'0 0.0
2018-Feb-19 18:58N 29°50' W 093°58'0 0.0
2018-Feb-19 18:28N 29°50' W 093°58'0 0.0
2018-Feb-19 17:58N 29°50' W 093°58'0 0.0
2018-Feb-19 17:28N 29°50' W 093°58'0 0.0
2018-Feb-19 16:58N 29°50' W 093°58'0 0.0
2018-Feb-19 16:28N 29°50' W 093°58'0 0.0
2018-Feb-19 15:58N 29°50' W 093°58'0 0.0
2018-Feb-19 15:28N 29°50' W 093°58'0 0.0
2018-Feb-19 14:55N 29°50' W 093°58'0 0.0
2018-Feb-19 14:28N 29°50' W 093°58'0 0.0
2018-Feb-19 13:58N 29°50' W 093°58'1 2.9
2018-Feb-19 13:30N 29°51' W 093°57'3 5.3
2018-Feb-19 13:00N 29°53' W 093°55'3 5.3
2018-Feb-19 12:31N 29°55' W 093°53'3 5.3
2018-Feb-19 12:01N 29°57' W 093°52'2 3.8
2018-Feb-19 11:30N 29°59' W 093°53'2 3.6
2018-Feb-19 10:58N 29°60' W 093°55'0 0.1
2018-Feb-19 10:29N 29°60' W 093°55'0 0.0
2018-Feb-19 09:56N 29°60' W 093°55'0 0.0
2018-Feb-19 09:29N 29°60' W 093°55'0 0.0
2018-Feb-19 08:59N 29°60' W 093°55'0 0.0
2018-Feb-19 08:23N 29°60' W 093°55'0 0.0
2018-Feb-19 07:59N 29°60' W 093°55'0 0.0
2018-Feb-19 07:29N 29°60' W 093°55'0 0.0
2018-Feb-19 06:59N 29°60' W 093°55'0 0.0
2018-Feb-19 06:29N 29°60' W 093°55'0 0.0
2018-Feb-19 05:59N 29°60' W 093°55'0 0.0
2018-Feb-19 05:26N 29°60' W 093°55'0 0.0
2018-Feb-19 04:59N 29°60' W 093°55'0 0.0
2018-Feb-19 04:29N 29°60' W 093°55'0 0.0
2018-Feb-19 03:59N 29°60' W 093°55'0 0.0
2018-Feb-19 03:29N 29°60' W 093°55'0 0.0
2018-Feb-19 02:59N 29°60' W 093°55'0 0.0
2018-Feb-19 02:29N 29°60' W 093°55'0 0.0
2018-Feb-19 01:59N 29°60' W 093°55'0 0.0
2018-Feb-19 01:29N 29°60' W 093°55'0 0.0
2018-Feb-19 00:59N 29°60' W 093°55'1 1.1
2018-Feb-19 00:30N 29°59' W 093°55'2 3.5
2018-Feb-19 00:00N 29°60' W 093°57'2 4.1
2018-Feb-18 23:30N 30°01' W 093°59'3 5.2
2018-Feb-18 23:00N 30°01' W 094°02'1 2.8
2018-Feb-18 22:30N 30°02' W 094°03'0 0.1
2018-Feb-18 22:00N 30°02' W 094°03'0 0.0
2018-Feb-18 21:27N 30°02' W 094°03'0 0.0
2018-Feb-18 21:00N 30°02' W 094°03'0 1.0
2018-Feb-18 20:30N 30°02' W 094°02'2 4.0
2018-Feb-18 20:00N 30°01' W 094°00'2 4.2
2018-Feb-18 19:30N 30°01' W 093°58'2 3.9
2018-Feb-18 19:01N 29°60' W 093°56'2 4.0
2018-Feb-18 18:30N 29°59' W 093°54'2 3.8
2018-Feb-18 18:00N 29°59' W 093°52'2 3.5
2018-Feb-18 17:30N 29°59' W 093°50'3 5.1
2018-Feb-18 17:01N 29°60' W 093°47'3 5.2
2018-Feb-18 16:30N 30°01' W 093°45'2 4.7
2018-Feb-18 16:00N 30°03' W 093°43'2 4.1
2018-Feb-18 15:30N 30°04' W 093°41'2 3.8
2018-Feb-18 15:00N 30°04' W 093°39'2 3.9
2018-Feb-18 14:30N 30°04' W 093°36'2 3.7
2018-Feb-18 14:00N 30°04' W 093°34'2 3.5
2018-Feb-18 13:30N 30°04' W 093°32'2 3.9
2018-Feb-18 13:00N 30°04' W 093°30'2 4.3
2018-Feb-18 12:31N 30°04' W 093°28'2 4.3
2018-Feb-18 11:59N 30°04' W 093°25'2 4.3
2018-Feb-18 11:30N 30°04' W 093°23'2 3.2
2018-Feb-18 11:00N 30°04' W 093°21'2 3.3
2018-Feb-18 10:30N 30°05' W 093°20'2 4.7
2018-Feb-18 10:01N 30°08' W 093°20'2 4.1
2018-Feb-18 09:30N 30°10' W 093°19'1 0.1
2018-Feb-17 22:45N 30°10' W 093°19'0 0.0
2018-Feb-17 22:30N 30°10' W 093°19'0 0.0
2018-Feb-17 22:00N 30°10' W 093°19'0 0.0
2018-Feb-17 21:30N 30°10' W 093°19'0 0.1
2018-Feb-17 21:00N 30°10' W 093°19'0 0.3
2018-Feb-17 20:30N 30°10' W 093°19'2 4.5
2018-Feb-17 20:00N 30°08' W 093°20'2 4.9
2018-Feb-17 19:30N 30°06' W 093°19'1 2.2
2018-Feb-17 18:57N 30°06' W 093°18'0 0.0
2018-Feb-17 18:30N 30°06' W 093°18'0 0.0
2018-Feb-17 18:00N 30°06' W 093°18'0 0.0
2018-Feb-17 13:45N 30°06' W 093°18'0 0.0
2018-Feb-17 13:30N 30°06' W 093°18'0 0.0
2018-Feb-17 13:00N 30°06' W 093°18'0 0.0
2018-Feb-17 12:30N 30°06' W 093°18'0 0.0
2018-Feb-17 12:00N 30°06' W 093°18'0 0.0
2018-Feb-17 11:30N 30°06' W 093°18'0 0.0
2018-Feb-17 11:00N 30°06' W 093°18'0 0.0
2018-Feb-17 10:30N 30°06' W 093°18'0 0.0
2018-Feb-17 10:00N 30°06' W 093°18'0 0.0
2018-Feb-17 09:30N 30°06' W 093°18'0 0.0
2018-Feb-17 09:00N 30°06' W 093°18'0 0.0
2018-Feb-17 08:30N 30°06' W 093°18'0 0.0
2018-Feb-17 08:00N 30°06' W 093°18'0 0.0
2018-Feb-17 07:30N 30°06' W 093°18'0 0.0
2018-Feb-17 07:00N 30°06' W 093°18'0 0.0
2018-Feb-17 06:30N 30°06' W 093°18'0 0.0
2018-Feb-17 06:00N 30°06' W 093°18'0 0.0
2018-Feb-17 05:30N 30°06' W 093°18'0 0.0
2018-Feb-17 05:00N 30°06' W 093°18'0 0.0
2018-Feb-17 04:30N 30°06' W 093°18'0 0.0
2018-Feb-17 04:00N 30°06' W 093°18'0 0.0
2018-Feb-17 03:30N 30°06' W 093°18'0 0.0
2018-Feb-17 03:00N 30°06' W 093°18'0 0.0
2018-Feb-17 02:30N 30°06' W 093°18'0 0.0
2018-Feb-17 02:00N 30°06' W 093°18'0 0.0
2018-Feb-17 01:27N 30°06' W 093°18'0 0.0
2018-Feb-17 00:54N 30°06' W 093°18'0 0.0
2018-Feb-17 00:30N 30°06' W 093°18'0 0.0
2018-Feb-16 23:57N 30°06' W 093°18'0 0.0
2018-Feb-16 23:15N 30°06' W 093°18'0 0.0
2018-Feb-16 23:01N 30°06' W 093°18'0 0.2
2018-Feb-16 22:26N 30°06' W 093°18'0 0.0
2018-Feb-16 21:58N 30°06' W 093°18'0 0.0
2018-Feb-16 21:28N 30°06' W 093°18'0 0.0
2018-Feb-16 20:58N 30°06' W 093°18'0 0.2
2018-Feb-16 20:30N 30°06' W 093°18'0 0.1
2018-Feb-16 19:59N 30°06' W 093°18'0 0.0
2018-Feb-16 19:29N 30°06' W 093°18'0 0.0
2018-Feb-16 18:59N 30°06' W 093°18'0 0.0
2018-Feb-16 18:29N 30°06' W 093°18'0 0.0
2018-Feb-16 17:59N 30°06' W 093°18'0 0.0
2018-Feb-16 17:29N 30°06' W 093°18'0 0.0
2018-Feb-16 16:59N 30°06' W 093°18'0 0.0
2018-Feb-16 16:23N 30°06' W 093°18'0 0.0
2018-Feb-16 15:59N 30°06' W 093°18'0 0.0
2018-Feb-16 15:29N 30°06' W 093°18'0 0.0
2018-Feb-16 14:59N 30°06' W 093°18'0 0.0
2018-Feb-16 14:29N 30°06' W 093°18'0 0.0
2018-Feb-16 13:59N 30°06' W 093°18'0 0.9
2018-Feb-16 13:30N 30°06' W 093°19'0 0.0
2018-Feb-15 21:44N 30°06' W 093°18'0 0.0
2018-Feb-15 21:29N 30°06' W 093°18'0 0.0
2018-Feb-15 20:59N 30°06' W 093°18'0 0.0
2018-Feb-15 20:29N 30°06' W 093°18'0 0.0
2018-Feb-15 19:59N 30°06' W 093°18'0 0.0
2018-Feb-15 19:29N 30°06' W 093°18'0 0.0
2018-Feb-15 18:59N 30°06' W 093°18'0 0.0
2018-Feb-15 18:29N 30°06' W 093°18'0 0.0
2018-Feb-15 17:59N 30°06' W 093°18'0 0.0
2018-Feb-15 17:29N 30°06' W 093°18'0 0.0
2018-Feb-15 16:59N 30°06' W 093°18'0 0.0
2018-Feb-15 16:29N 30°06' W 093°18'0 0.0
2018-Feb-15 08:47N 30°06' W 093°18'0 0.0
2018-Feb-15 08:29N 30°06' W 093°18'0 0.0
2018-Feb-15 07:59N 30°06' W 093°18'0 0.0
2018-Feb-15 07:29N 30°06' W 093°18'0 0.0
2018-Feb-15 06:59N 30°06' W 093°18'0 0.0
2018-Feb-15 06:23N 30°06' W 093°18'0 0.0
2018-Feb-15 05:59N 30°06' W 093°18'0 0.0
2018-Feb-15 05:29N 30°06' W 093°18'0 0.0
2018-Feb-15 04:56N 30°06' W 093°18'0 0.0
2018-Feb-15 04:29N 30°06' W 093°18'0 0.0
2018-Feb-15 03:59N 30°06' W 093°18'0 0.0
2018-Feb-15 03:29N 30°06' W 093°18'0 0.0
2018-Feb-15 02:50N 30°06' W 093°18'0 0.0
2018-Feb-15 02:17N 30°06' W 093°18'0 0.0
2018-Feb-15 01:59N 30°06' W 093°18'0 0.0
2018-Feb-15 01:29N 30°06' W 093°18'0 0.0
2018-Feb-15 00:59N 30°06' W 093°18'0 0.0
2018-Feb-15 00:29N 30°06' W 093°18'0 0.0
2018-Feb-14 23:59N 30°06' W 093°18'0 0.0
2018-Feb-14 23:29N 30°06' W 093°18'0 0.0
2018-Feb-14 22:59N 30°06' W 093°18'0 0.0
2018-Feb-14 22:29N 30°06' W 093°18'0 0.0
2018-Feb-14 21:59N 30°06' W 093°18'0 0.0
2018-Feb-14 21:28N 30°06' W 093°18'0 0.0
2018-Feb-14 20:58N 30°06' W 093°18'0 0.0
2018-Feb-14 20:28N 30°06' W 093°18'0 0.0
2018-Feb-14 19:58N 30°06' W 093°18'0 0.0
2018-Feb-14 19:28N 30°06' W 093°18'0 0.0
2018-Feb-14 18:58N 30°06' W 093°18'0 0.0
2018-Feb-14 18:28N 30°06' W 093°18'0 0.0
2018-Feb-14 17:58N 30°06' W 093°18'0 0.0
2018-Feb-14 17:28N 30°06' W 093°18'0 0.0
2018-Feb-14 16:58N 30°06' W 093°18'0 0.0
2018-Feb-14 16:30N 30°06' W 093°18'0 0.3
2018-Feb-14 16:00N 30°06' W 093°18'0 0.2
2018-Feb-14 15:30N 30°06' W 093°18'0 0.0
2018-Feb-14 15:00N 30°06' W 093°18'0 0.0
2018-Feb-14 14:30N 30°06' W 093°18'0 0.0
2018-Feb-14 14:00N 30°06' W 093°18'0 0.0
2018-Feb-14 13:30N 30°06' W 093°18'0 0.0
2018-Feb-14 13:00N 30°06' W 093°18'0 0.0
2018-Feb-14 12:30N 30°06' W 093°18'0 0.0
2018-Feb-14 12:00N 30°06' W 093°18'0 0.0
2018-Feb-14 11:30N 30°06' W 093°18'0 0.0
2018-Feb-14 11:00N 30°06' W 093°18'0 0.0
2018-Feb-14 10:30N 30°06' W 093°18'0 0.0
2018-Feb-14 10:00N 30°06' W 093°18'0 0.0
2018-Feb-14 09:30N 30°06' W 093°18'0 0.0
2018-Feb-14 09:00N 30°06' W 093°18'0 0.0
2018-Feb-14 08:30N 30°06' W 093°18'0 0.0
2018-Feb-14 08:00N 30°06' W 093°18'0 0.0
2018-Feb-14 07:30N 30°06' W 093°18'0 0.0
2018-Feb-14 07:00N 30°06' W 093°18'  

Dump ship's entire track history